createdAt,value
2019-06-07T00:00:25.693Z,3.50
2019-06-07T00:02:48.788Z,3.37
2019-06-07T00:05:42.499Z,3.97
2019-06-07T00:11:32.621Z,3.60
2019-06-07T00:14:51.063Z,3.37
2019-06-07T00:17:18.174Z,3.37
2019-06-07T00:19:59.293Z,3.70
2019-06-07T00:22:47.575Z,3.87
2019-06-07T00:25:33.580Z,3.60
2019-06-07T00:28:32.041Z,3.53
2019-06-07T00:31:36.034Z,3.77
2019-06-07T00:34:51.595Z,3.67
2019-06-07T00:38:01.285Z,3.90
2019-06-07T00:40:42.449Z,3.67
2019-06-07T00:44:23.364Z,3.63
2019-06-07T00:47:32.337Z,3.67
2019-06-07T00:57:55.782Z,4.03
2019-06-07T01:03:48.923Z,4.03
2019-06-07T01:06:30.177Z,3.80
2019-06-07T01:09:36.264Z,3.70
2019-06-07T01:12:27.254Z,3.50
2019-06-07T01:15:07.190Z,3.80
2019-06-07T01:18:33.124Z,3.70
2019-06-07T01:20:38.312Z,4.10
2019-06-07T01:24:03.217Z,3.73
2019-06-07T01:26:35.353Z,3.40
2019-06-07T01:29:12.510Z,3.40
2019-06-07T01:31:45.962Z,3.17
2019-06-07T01:34:35.343Z,3.50
2019-06-07T01:37:22.555Z,3.70
2019-06-07T01:40:09.611Z,3.40
2019-06-07T01:43:04.374Z,4.00
2019-06-07T01:45:44.974Z,3.83
2019-06-07T01:48:25.379Z,3.93
2019-06-07T01:51:18.919Z,4.27
2019-06-07T01:54:41.569Z,4.00
2019-06-07T01:56:43.272Z,3.70
2019-06-07T01:59:34.094Z,4.37
2019-06-07T02:02:12.024Z,4.17
2019-06-07T02:04:52.399Z,5.47
2019-06-07T02:10:58.385Z,5.13
2019-06-07T02:13:38.559Z,5.17
2019-06-07T02:16:21.888Z,5.00
2019-06-07T02:19:27.451Z,6.23
2019-06-07T02:25:27.390Z,6.17
2019-06-07T02:27:27.545Z,6.37
2019-06-07T02:33:24.434Z,6.40
2019-06-07T02:35:41.197Z,6.37
2019-06-07T02:38:37.040Z,6.57
2019-06-07T02:41:27.755Z,6.03
2019-06-07T02:44:06.137Z,6.07
2019-06-07T02:47:16.359Z,5.70
2019-06-07T02:49:44.468Z,5.60
2019-06-07T02:52:39.866Z,5.83
2019-06-07T02:55:29.674Z,6.10
2019-06-07T02:58:07.882Z,6.33
2019-06-07T03:01:10.129Z,6.17
2019-06-07T03:04:02.446Z,5.97
2019-06-07T03:07:01.048Z,6.10
2019-06-07T03:09:46.368Z,6.03
2019-06-07T03:12:35.556Z,6.27
2019-06-07T03:15:37.421Z,6.10
2019-06-07T03:18:16.240Z,6.73
2019-06-07T03:21:04.892Z,6.47
2019-06-07T03:23:31.991Z,8.07
2019-06-07T03:26:10.405Z,7.07
2019-06-07T03:28:44.571Z,6.77
2019-06-07T03:31:18.882Z,7.47
2019-06-07T03:33:52.191Z,6.60
2019-06-07T03:36:26.000Z,6.97
2019-06-07T03:39:02.935Z,6.80
2019-06-07T03:41:49.846Z,6.80
2019-06-07T03:44:11.856Z,6.87
2019-06-07T03:46:46.381Z,6.73
2019-06-07T03:49:18.982Z,8.00
2019-06-07T03:51:53.466Z,7.73
2019-06-07T03:54:31.998Z,7.33
2019-06-07T03:57:08.864Z,7.57
2019-06-07T03:59:41.574Z,7.50
2019-06-07T04:02:12.647Z,7.53
2019-06-07T04:04:48.747Z,8.00
2019-06-07T04:07:25.534Z,9.17
2019-06-07T04:10:02.031Z,8.77
2019-06-07T04:12:43.970Z,8.07
2019-06-07T04:15:14.296Z,8.93
2019-06-07T04:18:00.825Z,7.57
2019-06-07T04:20:24.363Z,9.50
2019-06-07T04:22:56.643Z,8.43
2019-06-07T04:25:29.004Z,9.27
2019-06-07T04:28:01.418Z,9.30
2019-06-07T04:30:48.896Z,10.63
2019-06-07T04:33:26.208Z,9.80
2019-06-07T04:35:59.758Z,10.23
2019-06-07T04:38:36.449Z,10.20
2019-06-07T04:41:06.187Z,10.40
2019-06-07T04:43:40.966Z,11.40
2019-06-07T04:46:18.602Z,11.70
2019-06-07T04:48:51.514Z,10.93
2019-06-07T04:51:26.907Z,12.23
2019-06-07T04:53:59.054Z,11.97
2019-06-07T04:56:30.717Z,12.17
2019-06-07T04:59:04.560Z,12.03
2019-06-07T05:01:41.449Z,12.57
2019-06-07T05:04:12.432Z,13.03
2019-06-07T05:06:47.552Z,12.73
2019-06-07T05:09:22.563Z,12.93
2019-06-07T05:11:55.320Z,13.80
2019-06-07T05:14:31.116Z,12.77
2019-06-07T05:17:08.079Z,12.93
2019-06-07T05:19:45.034Z,13.73
2019-06-07T05:22:16.183Z,13.67
2019-06-07T05:24:47.200Z,14.53
2019-06-07T05:27:20.324Z,13.17
2019-06-07T05:30:09.662Z,14.37
2019-06-07T05:32:37.613Z,14.10
2019-06-07T05:35:12.694Z,13.77
2019-06-07T05:37:45.952Z,14.97
2019-06-07T05:40:34.330Z,13.13
2019-06-07T05:43:09.510Z,15.70
2019-06-07T05:45:47.234Z,14.47
2019-06-07T05:48:23.094Z,13.23
2019-06-07T05:50:57.290Z,14.53
2019-06-07T05:53:28.424Z,14.23
2019-06-07T05:56:00.549Z,14.50
2019-06-07T05:58:32.719Z,14.67
2019-06-07T06:01:41.476Z,14.77
2019-06-07T06:03:44.066Z,12.97
2019-06-07T06:06:13.852Z,13.00
2019-06-07T06:08:49.470Z,13.97
2019-06-07T06:11:41.053Z,13.13
2019-06-07T06:14:06.533Z,11.80
2019-06-07T06:16:27.625Z,12.93
2019-06-07T06:18:57.904Z,12.73
2019-06-07T06:21:28.068Z,11.97
2019-06-07T06:23:58.253Z,12.10
2019-06-07T06:26:29.773Z,12.07
2019-06-07T06:29:00.001Z,12.73
2019-06-07T06:31:31.151Z,12.27
2019-06-07T06:34:02.029Z,12.10
2019-06-07T06:36:32.147Z,11.33
2019-06-07T06:39:02.314Z,11.50
2019-06-07T06:41:46.268Z,12.03
2019-06-07T06:44:05.697Z,10.53
2019-06-07T06:46:41.059Z,11.03
2019-06-07T06:49:08.803Z,10.77
2019-06-07T06:51:39.258Z,11.00
2019-06-07T06:54:10.258Z,10.70
2019-06-07T06:56:43.969Z,10.07
2019-06-07T06:59:37.329Z,10.13
2019-06-07T07:01:45.159Z,10.60
2019-06-07T07:04:16.925Z,9.57
2019-06-07T07:06:48.048Z,9.60
2019-06-07T07:09:18.445Z,10.30
2019-06-07T07:12:01.044Z,10.17
2019-06-07T07:14:20.607Z,10.13
2019-06-07T07:16:54.461Z,10.20
2019-06-07T07:19:22.793Z,9.60
2019-06-07T07:21:55.225Z,9.60
2019-06-07T07:24:25.111Z,9.70
2019-06-07T07:26:58.337Z,8.97
2019-06-07T07:29:27.127Z,8.87
2019-06-07T07:31:57.251Z,9.37
2019-06-07T07:34:35.300Z,9.53
2019-06-07T07:37:00.025Z,8.77
2019-06-07T07:39:30.254Z,9.50
2019-06-07T07:42:20.020Z,9.20
2019-06-07T07:44:32.255Z,9.17
2019-06-07T07:47:02.507Z,8.93
2019-06-07T07:49:32.653Z,10.40
2019-06-07T07:52:02.902Z,8.63
2019-06-07T07:54:33.064Z,8.90
2019-06-07T07:57:03.230Z,8.20
2019-06-07T07:59:44.136Z,8.13
2019-06-07T08:02:05.512Z,8.20
2019-06-07T08:05:12.774Z,8.17
2019-06-07T08:07:07.419Z,8.55
2019-06-07T08:09:37.601Z,9.33
2019-06-07T08:12:07.772Z,8.67
2019-06-07T08:14:37.928Z,7.77
2019-06-07T08:17:08.082Z,8.27
2019-06-07T08:19:38.285Z,8.63
2019-06-07T08:22:08.550Z,8.80
2019-06-07T08:24:41.005Z,8.70
2019-06-07T08:27:25.848Z,8.20
2019-06-07T08:30:00.898Z,8.43
2019-06-07T08:32:17.140Z,7.87
2019-06-07T08:34:51.825Z,9.10
2019-06-07T08:37:19.213Z,8.23
2019-06-07T08:39:52.806Z,8.80
2019-06-07T08:42:36.460Z,8.23
2019-06-07T08:45:01.569Z,8.50
2019-06-07T08:47:26.337Z,9.57
2019-06-07T08:50:01.487Z,9.53
2019-06-07T08:52:28.511Z,10.03
2019-06-07T08:55:03.329Z,9.03
2019-06-07T08:57:31.683Z,9.00
2019-06-07T09:00:15.960Z,9.50
2019-06-07T09:02:36.559Z,9.15
2019-06-07T09:05:12.559Z,8.60
2019-06-07T09:07:40.081Z,8.03
2019-06-07T09:10:14.422Z,8.70
2019-06-07T09:12:43.539Z,8.63
2019-06-07T09:15:22.787Z,7.83
2019-06-07T09:18:30.152Z,8.63
2019-06-07T09:20:35.579Z,8.25
2019-06-07T09:22:51.734Z,8.77
2019-06-07T09:25:22.071Z,8.23
2019-06-07T09:27:52.408Z,8.10
2019-06-07T09:30:38.998Z,7.33
2019-06-07T09:33:09.766Z,8.50
2019-06-07T09:35:40.578Z,7.87
2019-06-07T09:38:24.191Z,7.07
2019-06-07T09:40:42.850Z,7.77
2019-06-07T09:45:44.873Z,7.10
2019-06-07T09:49:01.425Z,7.80
2019-06-07T09:50:48.345Z,7.80
2019-06-07T09:53:22.416Z,7.53
2019-06-07T09:55:50.330Z,8.18
2019-06-07T10:00:52.328Z,9.30
2019-06-07T10:03:25.647Z,9.07
2019-06-07T10:06:00.372Z,9.30
2019-06-07T10:11:02.644Z,10.70
2019-06-07T10:13:32.762Z,12.00
2019-06-07T10:16:02.934Z,11.57
2019-06-07T10:18:34.138Z,12.57
2019-06-07T10:21:05.673Z,12.28
2019-06-07T10:23:36.106Z,12.23
2019-06-07T10:26:06.313Z,12.47
2019-06-07T10:28:36.609Z,12.33
2019-06-07T10:31:08.868Z,12.30
2019-06-07T10:33:40.423Z,12.37
2019-06-07T10:36:10.793Z,13.15
2019-06-07T10:38:40.917Z,12.90
2019-06-07T10:41:12.095Z,13.23
2019-06-07T10:43:42.237Z,12.93
2019-06-07T10:46:12.571Z,12.67
2019-06-07T10:48:42.851Z,13.67
2019-06-07T10:51:14.719Z,14.13
2019-06-07T10:53:44.879Z,13.20
2019-06-07T10:56:15.086Z,13.13
2019-06-07T10:58:45.325Z,13.03
2019-06-07T11:01:15.569Z,13.83
2019-06-07T11:03:45.959Z,13.77
2019-06-07T11:06:16.203Z,12.90
2019-06-07T11:08:46.436Z,14.30
2019-06-07T11:11:19.570Z,12.98
2019-06-07T11:13:52.468Z,13.53
2019-06-07T11:16:24.856Z,12.33
2019-06-07T11:18:56.902Z,11.12
2019-06-07T11:21:27.057Z,11.48
2019-06-07T11:23:57.392Z,11.70
2019-06-07T11:26:27.532Z,12.82
2019-06-07T11:28:57.727Z,13.17
2019-06-07T11:31:29.413Z,12.58
2019-06-07T11:33:59.555Z,11.35
2019-06-07T11:36:29.776Z,11.38
2019-06-07T11:38:59.975Z,11.00
2019-06-07T11:41:30.125Z,10.82
2019-06-07T11:44:00.272Z,11.07
2019-06-07T11:46:30.458Z,9.78
2019-06-07T11:49:00.711Z,9.58
2019-06-07T11:51:30.870Z,10.03
2019-06-07T11:54:01.402Z,8.93
2019-06-07T11:56:31.518Z,10.40
2019-06-07T11:59:01.696Z,10.85
2019-06-07T12:01:31.837Z,9.88
2019-06-07T12:04:01.965Z,10.03
2019-06-07T12:06:32.026Z,10.03
2019-06-07T12:09:02.203Z,9.75
2019-06-07T12:11:33.965Z,10.38
2019-06-07T12:14:04.429Z,10.00
2019-06-07T12:16:34.590Z,10.60
2019-06-07T12:19:04.799Z,9.53
2019-06-07T12:21:34.921Z,9.98
2019-06-07T12:24:05.297Z,9.45
2019-06-07T12:26:35.500Z,9.23
2019-06-07T12:29:07.418Z,10.15
2019-06-07T12:31:37.636Z,10.15
2019-06-07T12:34:07.770Z,9.88
2019-06-07T12:36:37.980Z,9.13
2019-06-07T12:39:08.757Z,9.03
2019-06-07T12:41:38.956Z,8.73
2019-06-07T12:44:09.119Z,9.05
2019-06-07T12:46:42.070Z,8.60
2019-06-07T12:49:12.969Z,8.58
2019-06-07T12:51:45.110Z,7.75
2019-06-07T12:54:15.507Z,7.78
2019-06-07T12:56:45.640Z,8.63
2019-06-07T12:59:17.962Z,7.83
2019-06-07T13:01:50.021Z,7.62
2019-06-07T13:04:22.584Z,7.72
2019-06-07T13:06:53.715Z,7.70
2019-06-07T13:09:24.051Z,7.70
2019-06-07T13:11:54.391Z,7.75
2019-06-07T13:14:26.489Z,8.35
2019-06-07T13:16:56.701Z,7.58
2019-06-07T13:19:26.802Z,7.03
2019-06-07T13:21:56.992Z,7.47
2019-06-07T13:24:29.465Z,7.50
2019-06-07T13:26:59.793Z,7.42
2019-06-07T13:29:32.159Z,7.83
2019-06-07T13:32:01.681Z,7.30
2019-06-07T13:34:31.788Z,7.25
2019-06-07T13:37:01.981Z,7.60
2019-06-07T13:39:32.189Z,7.10
2019-06-07T13:42:02.414Z,7.75
2019-06-07T13:44:41.916Z,7.92
2019-06-07T13:47:12.079Z,7.30
2019-06-07T13:49:45.364Z,7.72
2019-06-07T13:52:16.340Z,7.90
2019-06-07T13:54:46.554Z,8.30
2019-06-07T13:57:17.926Z,7.53
2019-06-07T13:59:48.138Z,7.28
2019-06-07T14:02:18.573Z,7.60
2019-06-07T14:04:48.711Z,7.37
2019-06-07T14:07:21.245Z,7.17
2019-06-07T14:09:53.216Z,6.60
2019-06-07T14:12:29.594Z,6.80
2019-06-07T14:15:01.377Z,6.40
2019-06-07T14:17:34.438Z,6.67
2019-06-07T14:20:10.940Z,6.70
2019-06-07T14:22:42.275Z,6.87
2019-06-07T14:25:16.725Z,6.80
2019-06-07T14:27:48.169Z,8.23
2019-06-07T14:30:21.808Z,7.42
2019-06-07T14:32:55.517Z,7.87
2019-06-07T14:35:39.779Z,7.22
2019-06-07T14:38:11.027Z,8.48
2019-06-07T14:40:41.230Z,6.60
2019-06-07T14:43:11.611Z,6.60
2019-06-07T14:45:43.743Z,7.83
2019-06-07T14:48:14.578Z,7.65
2019-06-07T14:50:55.901Z,7.15
2019-06-07T14:53:28.705Z,7.15
2019-06-07T14:56:01.696Z,7.15
2019-06-07T14:59:08.500Z,7.33
2019-06-07T15:02:00.778Z,6.92
2019-06-07T15:04:30.907Z,11.07
2019-06-07T15:07:01.189Z,8.83
2019-06-07T15:09:35.284Z,10.05
2019-06-07T15:12:23.926Z,8.00
2019-06-07T15:14:42.780Z,7.97
2019-06-07T15:17:15.919Z,8.17
2019-06-07T15:19:53.485Z,8.58
2019-06-07T15:22:24.404Z,7.83
2019-06-07T15:24:56.066Z,8.00
2019-06-07T15:27:27.237Z,8.30
2019-06-07T15:29:57.836Z,7.50
2019-06-07T15:32:28.366Z,9.27
2019-06-07T15:34:58.663Z,10.23
2019-06-07T15:37:28.865Z,10.45
2019-06-07T15:39:59.098Z,10.30
2019-06-07T15:42:42.665Z,11.17
2019-06-07T15:45:01.082Z,10.97
2019-06-07T15:47:31.737Z,11.05
2019-06-07T15:50:01.971Z,11.67
2019-06-07T15:52:33.355Z,12.20
2019-06-07T15:55:03.621Z,13.77
2019-06-07T15:57:37.301Z,14.15
2019-06-07T16:00:09.053Z,14.33
2019-06-07T16:02:46.775Z,14.30
2019-06-07T16:05:21.238Z,14.23
2019-06-07T16:07:54.472Z,14.27
2019-06-07T16:10:24.593Z,14.00
2019-06-07T16:13:00.453Z,13.77
2019-06-07T16:15:27.633Z,13.17
2019-06-07T16:17:57.814Z,14.30
2019-06-07T16:20:27.959Z,12.80
2019-06-07T16:22:58.210Z,14.28
2019-06-07T16:25:28.314Z,15.18
2019-06-07T16:27:59.128Z,15.80
2019-06-07T16:30:29.291Z,17.03
2019-06-07T16:32:59.421Z,14.07
2019-06-07T16:35:29.472Z,17.37
2019-06-07T16:37:59.606Z,13.70
2019-06-07T16:40:29.748Z,11.27
2019-06-07T16:43:16.229Z,11.63
2019-06-07T16:45:32.557Z,10.60
2019-06-07T16:48:02.641Z,9.43
2019-06-07T16:50:32.777Z,9.83
2019-06-07T16:53:03.803Z,10.13
2019-06-07T16:55:33.939Z,9.97
2019-06-07T16:58:04.473Z,9.37
2019-06-07T17:00:34.954Z,9.00
2019-06-07T17:03:09.665Z,8.83
2019-06-07T17:05:42.854Z,9.27
2019-06-07T17:08:11.667Z,9.00
2019-06-07T17:10:42.519Z,8.93
2019-06-07T17:13:13.075Z,9.20
2019-06-07T17:15:45.104Z,8.80
2019-06-07T17:18:15.872Z,8.33
2019-06-07T17:20:47.398Z,8.53
2019-06-07T17:23:23.088Z,7.83
2019-06-07T17:25:53.337Z,7.93
2019-06-07T17:28:23.619Z,7.97
2019-06-07T17:30:53.869Z,7.63
2019-06-07T17:33:23.978Z,7.27
2019-06-07T17:35:54.201Z,7.63
2019-06-07T17:38:24.398Z,5.60
2019-06-07T17:40:54.642Z,6.10
2019-06-07T17:43:26.177Z,6.13
2019-06-07T17:45:56.711Z,5.90
2019-06-07T17:48:26.898Z,6.37
2019-06-07T17:50:57.177Z,5.67
2019-06-07T17:53:30.628Z,4.90
2019-06-07T17:56:01.899Z,4.30
2019-06-07T17:58:33.578Z,3.10
2019-06-07T18:01:03.802Z,2.50
2019-06-07T18:03:34.143Z,2.43
2019-06-07T18:06:10.203Z,2.40
2019-06-07T18:08:47.617Z,2.43
2019-06-07T18:11:18.027Z,2.13
2019-06-07T18:13:48.328Z,2.57
2019-06-07T18:16:19.693Z,2.50
2019-06-07T18:18:50.662Z,2.33
2019-06-07T18:21:22.132Z,2.73
2019-06-07T18:23:52.992Z,2.50
2019-06-07T18:26:24.895Z,2.73
2019-06-07T18:28:56.634Z,2.70
2019-06-07T18:31:36.439Z,2.83
2019-06-07T18:34:05.270Z,2.77
2019-06-07T18:36:40.400Z,2.60
2019-06-07T18:39:24.111Z,2.30
2019-06-07T18:42:01.499Z,2.30
2019-06-07T18:44:37.081Z,2.60
2019-06-07T18:47:13.809Z,2.10
2019-06-07T18:49:47.408Z,2.23
2019-06-07T18:52:27.310Z,2.20
2019-06-07T18:55:05.473Z,2.10
2019-06-07T18:57:41.751Z,2.10
2019-06-07T19:00:17.754Z,1.80
2019-06-07T19:03:00.125Z,2.23
2019-06-07T19:06:02.492Z,11.03
2019-06-07T19:08:34.914Z,3.17
2019-06-07T19:11:34.344Z,2.83
2019-06-07T19:14:37.588Z,2.00
2019-06-07T19:17:18.975Z,2.87
2019-06-07T19:19:56.312Z,2.37
2019-06-07T19:22:39.501Z,1.57
2019-06-07T19:25:22.704Z,1.90
2019-06-07T19:27:55.197Z,1.67
2019-06-07T19:30:31.468Z,1.20
2019-06-07T19:33:05.866Z,1.40
2019-06-07T19:35:40.779Z,1.40
2019-06-07T19:38:23.033Z,1.40
2019-06-07T19:41:12.756Z,1.50
2019-06-07T19:43:38.105Z,1.37
2019-06-07T19:46:22.996Z,1.50
2019-06-07T19:48:56.611Z,1.83
2019-06-07T19:51:40.414Z,1.83
2019-06-07T19:54:20.414Z,1.63
2019-06-07T19:56:55.832Z,1.57
2019-06-07T19:59:29.093Z,1.80
2019-06-07T20:02:10.452Z,3.27
2019-06-07T20:05:07.089Z,4.43
2019-06-07T20:07:35.080Z,3.47
2019-06-07T20:10:14.437Z,1.17
2019-06-07T20:12:51.421Z,1.43
2019-06-07T20:15:30.487Z,1.60
2019-06-07T20:18:13.009Z,1.47
2019-06-07T20:20:52.131Z,1.47
2019-06-07T20:23:27.386Z,1.60
2019-06-07T20:26:08.864Z,1.30
2019-06-07T20:28:49.105Z,1.27
2019-06-07T20:31:27.771Z,1.20
2019-06-07T20:34:04.172Z,1.77
2019-06-07T20:36:34.218Z,1.33
2019-06-07T20:39:17.241Z,1.57
2019-06-07T20:42:11.570Z,1.47
2019-06-07T20:44:31.551Z,1.40
2019-06-07T20:47:08.415Z,1.53
2019-06-07T20:49:44.517Z,1.43
2019-06-07T20:52:43.070Z,1.60
2019-06-07T20:55:18.096Z,1.30
2019-06-07T20:58:07.125Z,1.73
2019-06-07T21:00:40.673Z,1.30
2019-06-07T21:03:26.959Z,1.60
2019-06-07T21:06:05.519Z,1.50
2019-06-07T21:08:37.675Z,1.83
2019-06-07T21:11:11.619Z,1.30
2019-06-07T21:13:42.575Z,1.60
2019-06-07T21:16:14.122Z,1.90
2019-06-07T21:18:46.803Z,1.77
2019-06-07T21:21:18.645Z,1.30
2019-06-07T21:23:51.314Z,1.73
2019-06-07T21:26:22.413Z,2.60
2019-06-07T21:28:53.988Z,1.97
2019-06-07T21:31:25.255Z,2.10
2019-06-07T21:33:56.236Z,1.83
2019-06-07T21:36:26.589Z,2.00
2019-06-07T21:38:56.899Z,2.40
2019-06-07T21:41:28.990Z,1.87
2019-06-07T21:43:59.213Z,2.40
2019-06-07T21:46:29.517Z,1.20
2019-06-07T21:49:02.217Z,1.43
2019-06-07T21:51:33.208Z,1.60
2019-06-07T21:54:10.106Z,1.50
2019-06-07T21:57:06.915Z,1.70
2019-06-07T21:59:17.352Z,1.83
2019-06-07T22:01:47.609Z,1.40
2019-06-07T22:04:18.113Z,1.40
2019-06-07T22:06:48.564Z,1.10
2019-06-07T22:09:19.152Z,1.10
2019-06-07T22:11:49.462Z,1.20
2019-06-07T22:14:20.085Z,1.30
2019-06-07T22:16:51.659Z,1.17
2019-06-07T22:19:23.929Z,1.20
2019-06-07T22:22:02.485Z,1.30
2019-06-07T22:24:26.023Z,1.10
2019-06-07T22:26:56.247Z,1.20
2019-06-07T22:29:26.456Z,0.90
2019-06-07T22:31:56.596Z,1.47
2019-06-07T22:34:26.829Z,1.40
2019-06-07T22:36:57.359Z,1.00
2019-06-07T22:39:27.629Z,0.90
2019-06-07T22:41:59.680Z,1.10
2019-06-07T22:44:34.643Z,1.40
2019-06-07T22:47:09.969Z,1.10
2019-06-07T22:49:39.722Z,1.00
2019-06-07T22:52:13.503Z,1.20
2019-06-07T22:54:43.396Z,1.30
2019-06-07T22:57:21.246Z,1.10
2019-06-07T22:59:51.410Z,1.27
2019-06-07T23:02:22.151Z,1.40
2019-06-07T23:04:52.398Z,1.20
2019-06-07T23:07:23.005Z,0.90
2019-06-07T23:09:53.524Z,1.00
2019-06-07T23:12:25.509Z,1.00
2019-06-07T23:14:55.833Z,1.00
2019-06-07T23:17:26.133Z,1.00
2019-06-07T23:19:56.470Z,1.00
2019-06-07T23:22:26.644Z,1.17
2019-06-07T23:24:56.890Z,0.90
2019-06-07T23:27:27.026Z,1.30
2019-06-07T23:29:57.677Z,1.20
2019-06-07T23:32:27.908Z,1.23
2019-06-07T23:34:58.095Z,1.20
2019-06-07T23:37:31.283Z,1.00
2019-06-07T23:40:01.488Z,1.40
2019-06-07T23:42:31.761Z,1.20
2019-06-07T23:45:05.254Z,1.20
2019-06-07T23:47:35.453Z,1.30
2019-06-07T23:50:06.488Z,0.93
2019-06-07T23:52:38.656Z,1.20
2019-06-07T23:55:09.300Z,1.13
2019-06-07T23:57:39.659Z,1.13
